Time;durP1;ratioP1;P1;durP2;ratioP2;P2;SDS_P1;SDS_P2;PMS_P1;PMS_P2;Temp;Humidity;BMP_temperature;BMP_pressure;BME280_temperature;BME280_humidity;BME280_pressure;Samples;Min_cycle;Max_cycle;Signal;HPM_P1;HPM_P2
2022/09/19 00:02:08;;;;;;;;;;;;;;;18.24;40.11;98684.09;4471298;32;34270;-85
2022/09/19 00:04:36;;;;;;;;;;;;;;;18.26;39.34;98683.19;4478564;32;34126;-83
2022/09/19 00:07:03;;;;;;;;;;;;;;;18.30;39.22;98672.59;4469308;32;34201;-84
2022/09/19 00:09:31;;;;;;;;;;;;;;;18.96;37.66;98671.62;4481645;32;33492;-81
2022/09/19 00:11:58;;;;;;;;;;;;;;;18.28;39.73;98670.91;4482142;32;35067;-82
2022/09/19 00:14:27;;;;;;;;;;;;;;;17.55;40.85;98665.69;4467354;32;34143;-84
2022/09/19 00:16:56;;;;;;;;;;;;;;;17.63;39.75;98655.88;4469515;32;34225;-82
2022/09/19 00:19:23;;;;;;;;;;;;;;;18.29;39.53;98655.09;4452478;32;33896;-82
2022/09/19 00:21:53;;;;;;;;;;;;;;;18.48;39.41;98656.31;4475568;32;34980;-83
2022/09/19 00:27:21;;;;;;;;;;;;;;;17.86;40.42;98640.47;4440389;32;33943;-81
2022/09/19 00:29:49;;;;;;;;;;;;;;;17.93;40.97;98638.56;4468897;32;33184;-84
2022/09/19 00:32:16;;;;;;;;;;;;;;;19.00;38.13;98632.16;4455084;32;35110;-82
2022/09/19 00:34:46;;;;;;;;;;;;;;;18.69;39.48;98631.25;4468451;32;35275;-82
2022/09/19 00:37:14;;;;;;;;;;;;;;;18.11;39.83;98637.25;4468876;32;34232;-81
2022/09/19 00:39:41;;;;;;;;;;;;;;;17.93;39.53;98621.06;4468835;32;33583;-81
2022/09/19 00:42:16;;;;;;;;;;;;;;;18.03;39.69;98626.06;4468602;32;34102;-85
2022/09/19 00:44:43;;;;;;;;;;;;;;;18.47;39.23;98615.22;4475325;32;34324;-84
2022/09/19 00:47:12;;;;;;;;;;;;;;;18.57;38.46;98620.25;4468414;32;34074;-81
2022/09/19 00:49:40;;;;;;;;;;;;;;;18.91;38.32;98620.16;4454600;32;34261;-82
2022/09/19 00:52:10;;;;;;;;;;;;;;;18.73;38.32;98626.81;4469115;32;34202;-81
2022/09/19 00:54:40;;;;;;;;;;;;;;;18.54;39.31;98621.19;4469589;32;34142;-84
2022/09/19 00:57:08;;;;;;;;;;;;;;;18.11;39.80;98638.09;4482453;32;34525;-82
2022/09/19 00:59:36;;;;;;;;;;;;;;;18.43;39.26;98639.00;4460045;32;33581;-83
2022/09/19 01:02:05;;;;;;;;;;;;;;;17.14;41.98;98641.28;4456358;31;33951;-84
2022/09/19 01:04:35;;;;;;;;;;;;;;;16.89;42.64;98641.81;4477001;32;35162;-85
2022/09/19 01:07:03;;;;;;;;;;;;;;;17.86;41.10;98627.38;4471247;32;34212;-85
2022/09/19 01:09:40;;;;;;;;;;;;;;;18.15;40.15;98616.13;4482935;32;33628;-85
2022/09/19 01:12:17;;;;;;;;;;;;;;;18.39;39.75;98616.34;4464680;32;34206;-84
2022/09/19 01:15:24;;;;;;;;;;;;;;;18.46;39.43;98634.53;4473715;32;34308;-81
2022/09/19 01:18:01;;;;;;;;;;;;;;;18.07;39.91;98636.47;4413648;32;35175;-82
2022/09/19 01:20:31;;;;;;;;;;;;;;;18.46;39.46;98636.28;4419158;32;33058;-83
2022/09/19 01:23:02;;;;;;;;;;;;;;;18.28;39.64;98642.03;4445585;32;34084;-85
2022/09/19 01:25:49;;;;;;;;;;;;;;;18.40;39.78;98634.69;4454526;32;34185;-85
2022/09/19 01:28:18;;;;;;;;;;;;;;;19.09;38.68;98623.97;4473882;32;34259;-82
2022/09/19 01:31:19;;;;;;;;;;;;;;;19.19;39.07;98622.81;4469238;32;34343;-81
2022/09/19 01:34:05;;;;;;;;;;;;;;;18.77;39.97;98623.19;4468330;32;34949;-81
2022/09/19 01:36:34;;;;;;;;;;;;;;;19.04;39.73;98618.00;4476114;32;35118;-81
2022/09/19 01:39:02;;;;;;;;;;;;;;;19.38;39.21;98616.06;4462491;32;33720;-81
2022/09/19 01:41:32;;;;;;;;;;;;;;;19.55;38.94;98617.31;4483812;32;32954;-85
2022/09/19 01:44:04;;;;;;;;;;;;;;;19.78;38.54;98617.44;4476812;32;33776;-81
2022/09/19 01:46:36;;;;;;;;;;;;;;;19.79;38.54;98606.00;4474173;32;34511;-83
2022/09/19 01:49:21;;;;;;;;;;;;;;;19.94;38.54;98607.25;4455075;32;34578;-85
2022/09/19 01:51:50;;;;;;;;;;;;;;;19.65;38.59;98602.97;4454153;32;34125;-82
2022/09/19 01:54:23;;;;;;;;;;;;;;;20.02;38.16;98596.47;4455946;32;35132;-86
2022/09/19 01:56:55;;;;;;;;;;;;;;;20.25;37.53;98596.50;4464524;32;33667;-81
2022/09/19 01:59:42;;;;;;;;;;;;;;;19.85;38.47;98604.91;4454956;32;34847;-80
2022/09/19 02:02:22;;;;;;;;;;;;;;;20.20;37.59;98600.25;4477556;32;33480;-84
2022/09/19 02:05:00;;;;;;;;;;;;;;;19.60;39.13;98602.22;4468258;32;33866;-85
2022/09/19 02:07:28;;;;;;;;;;;;;;;19.29;40.02;98605.84;4458126;32;34290;-82
2022/09/19 02:10:00;;;;;;;;;;;;;;;19.66;39.47;98602.03;4469949;32;34054;-85
2022/09/19 02:12:30;;;;;;;;;;;;;;;19.64;39.25;98602.09;4454173;32;33690;-85
2022/09/19 02:15:00;;;;;;;;;;;;;;;19.20;40.67;98619.25;4455108;32;33720;-84
2022/09/19 02:17:33;;;;;;;;;;;;;;;19.65;39.19;98618.75;4458525;32;35249;-82
2022/09/19 02:20:08;;;;;;;;;;;;;;;18.96;40.91;98619.09;4469400;32;34338;-83
2022/09/19 02:22:37;;;;;;;;;;;;;;;18.78;41.60;98617.00;4466522;32;33299;-85
2022/09/19 02:25:06;;;;;;;;;;;;;;;18.61;41.62;98621.87;4453954;32;33899;-82
2022/09/19 02:27:37;;;;;;;;;;;;;;;18.89;41.11;98614.06;4456131;32;34372;-82
2022/09/19 02:30:08;;;;;;;;;;;;;;;19.26;40.72;98624.34;4459782;32;35035;-83
2022/09/19 02:32:36;;;;;;;;;;;;;;;19.64;39.78;98628.41;4463859;32;33963;-82
2022/09/19 02:35:03;;;;;;;;;;;;;;;19.40;40.56;98622.13;4453980;32;34879;-82
2022/09/19 02:37:31;;;;;;;;;;;;;;;19.18;41.11;98628.97;4454590;32;34112;-82
2022/09/19 02:39:58;;;;;;;;;;;;;;;19.47;40.39;98629.81;4482278;32;34485;-82
2022/09/19 02:42:44;;;;;;;;;;;;;;;18.81;41.32;98630.06;4468526;32;33332;-85
2022/09/19 02:45:17;;;;;;;;;;;;;;;19.54;39.97;98632.19;4470086;32;34228;-82
2022/09/19 02:47:51;;;;;;;;;;;;;;;19.49;40.19;98625.38;4466760;32;35153;-82
2022/09/19 02:50:22;;;;;;;;;;;;;;;18.81;41.39;98629.22;4475833;31;34777;-85
2022/09/19 02:52:50;;;;;;;;;;;;;;;18.90;40.65;98618.41;4471688;32;33171;-82
2022/09/19 02:55:25;;;;;;;;;;;;;;;18.91;40.70;98607.03;4467961;32;35052;-82
2022/09/19 02:57:54;;;;;;;;;;;;;;;19.08;40.69;98606.50;4464074;32;34218;-85
2022/09/19 03:00:21;;;;;;;;;;;;;;;18.98;40.63;98605.94;4473833;32;34516;-84
2022/09/19 03:02:56;;;;;;;;;;;;;;;19.11;40.18;98604.66;4475525;32;33498;-83
2022/09/19 03:05:27;;;;;;;;;;;;;;;19.32;40.07;98600.50;4468632;32;33927;-84
2022/09/19 03:07:56;;;;;;;;;;;;;;;19.63;39.37;98604.81;4473772;32;35149;-83
2022/09/19 03:10:25;;;;;;;;;;;;;;;19.69;40.13;98605.44;4456533;32;34973;-82
2022/09/19 03:12:54;;;;;;;;;;;;;;;19.80;40.34;98602.44;4467768;32;34055;-83
2022/09/19 03:15:24;;;;;;;;;;;;;;;19.80;40.12;98602.44;4464205;32;33904;-86
2022/09/19 03:17:53;;;;;;;;;;;;;;;20.19;38.04;98609.88;4468009;32;34779;-82
2022/09/19 03:20:22;;;;;;;;;;;;;;;19.89;38.67;98609.19;4454820;32;34079;-81
2022/09/19 03:22:49;;;;;;;;;;;;;;;19.71;39.19;98623.81;4482644;32;33292;-81
2022/09/19 03:25:17;;;;;;;;;;;;;;;19.68;39.74;98613.37;4464738;32;33641;-83
2022/09/19 03:27:49;;;;;;;;;;;;;;;19.40;40.80;98608.13;4474666;32;35124;-83
2022/09/19 03:30:20;;;;;;;;;;;;;;;20.03;39.87;98609.56;4457035;32;35073;-83
2022/09/19 03:32:49;;;;;;;;;;;;;;;20.24;39.58;98602.69;4470394;32;34737;-83
2022/09/19 03:35:17;;;;;;;;;;;;;;;20.09;39.91;98613.75;4472371;32;34249;-82
2022/09/19 03:37:44;;;;;;;;;;;;;;;20.17;40.12;98609.09;4471707;32;35269;-81
2022/09/19 03:40:14;;;;;;;;;;;;;;;20.21;40.31;98607.22;4473444;32;35053;-84
2022/09/19 03:42:45;;;;;;;;;;;;;;;20.26;40.12;98611.38;4480251;32;33472;-81
2022/09/19 03:45:13;;;;;;;;;;;;;;;19.28;41.91;98612.03;4481306;32;34186;-81
2022/09/19 03:47:40;;;;;;;;;;;;;;;19.38;41.90;98613.44;4481401;32;34891;-83
2022/09/19 03:50:07;;;;;;;;;;;;;;;19.50;41.83;98616.56;4470711;32;34165;-82
2022/09/19 03:52:36;;;;;;;;;;;;;;;19.83;41.01;98615.50;4466404;32;33507;-81
2022/09/19 03:55:03;;;;;;;;;;;;;;;19.89;41.00;98611.81;4476900;32;34506;-82
2022/09/19 03:57:31;;;;;;;;;;;;;;;19.93;40.99;98619.56;4481261;32;35609;-84
2022/09/19 03:59:58;;;;;;;;;;;;;;;20.02;40.88;98621.00;4465963;32;34627;-82
2022/09/19 04:02:26;;;;;;;;;;;;;;;20.16;40.58;98610.00;4468335;32;33923;-81
2022/09/19 04:04:53;;;;;;;;;;;;;;;20.30;40.50;98613.00;4468982;32;34059;-81
2022/09/19 04:07:21;;;;;;;;;;;;;;;20.41;40.57;98608.19;4467739;32;35004;-84
2022/09/19 04:09:49;;;;;;;;;;;;;;;20.38;40.70;98616.25;4469197;32;34214;-81
2022/09/19 04:12:16;;;;;;;;;;;;;;;20.34;40.97;98614.63;4468524;32;33054;-82
2022/09/19 04:14:45;;;;;;;;;;;;;;;20.36;41.00;98607.53;4467906;32;35190;-83
2022/09/19 04:17:13;;;;;;;;;;;;;;;20.44;40.90;98617.78;4468738;32;34530;-83
2022/09/19 04:19:52;;;;;;;;;;;;;;;20.33;40.89;98623.41;4477083;32;34517;-83
2022/09/19 04:22:21;;;;;;;;;;;;;;;20.19;41.17;98633.56;4476634;32;33761;-81
2022/09/19 04:24:53;;;;;;;;;;;;;;;20.38;40.86;98626.78;4484555;32;34143;-82
2022/09/19 04:27:20;;;;;;;;;;;;;;;20.27;41.08;98618.41;4475014;32;35173;-82
2022/09/19 04:29:48;;;;;;;;;;;;;;;20.55;40.70;98622.69;4468447;32;34243;-82
2022/09/19 04:32:15;;;;;;;;;;;;;;;20.40;41.12;98613.53;4468926;32;34027;-81
2022/09/19 04:34:44;;;;;;;;;;;;;;;20.60;40.58;98608.44;4468019;32;35000;-82
2022/09/19 04:37:15;;;;;;;;;;;;;;;20.48;40.91;98600.09;4467963;32;34421;-81
2022/09/19 04:39:47;;;;;;;;;;;;;;;20.45;40.88;98600.19;4468612;32;34851;-82
2022/09/19 04:42:15;;;;;;;;;;;;;;;20.54;40.69;98606.03;4468886;32;32862;-81
2022/09/19 04:44:43;;;;;;;;;;;;;;;20.37;41.14;98603.09;4468496;32;34360;-84
2022/09/19 04:47:11;;;;;;;;;;;;;;;20.49;40.82;98607.97;4468388;32;34172;-81
2022/09/19 04:49:39;;;;;;;;;;;;;;;20.68;40.49;98607.28;4472727;31;34781;-84
2022/09/19 04:52:08;;;;;;;;;;;;;;;20.57;40.61;98605.03;4471773;32;33288;-83
2022/09/19 04:54:36;;;;;;;;;;;;;;;20.53;40.74;98611.34;4454255;32;33879;-82
2022/09/19 04:57:05;;;;;;;;;;;;;;;20.63;40.63;98613.59;4476207;32;34760;-82
2022/09/19 04:59:35;;;;;;;;;;;;;;;20.62;40.76;98618.94;4479252;32;34794;-82
2022/09/19 05:02:05;;;;;;;;;;;;;;;20.44;41.34;98617.78;4468630;32;34022;-83
2022/09/19 05:04:33;;;;;;;;;;;;;;;20.41;41.38;98617.88;4469113;32;34269;-82
2022/09/19 05:07:00;;;;;;;;;;;;;;;20.30;41.65;98623.53;4468537;32;34207;-84
2022/09/19 05:09:28;;;;;;;;;;;;;;;20.19;41.99;98628.31;4468059;32;34606;-83
2022/09/19 05:11:56;;;;;;;;;;;;;;;20.37;41.74;98627.66;4468148;32;33615;-82
2022/09/19 05:14:26;;;;;;;;;;;;;;;20.46;41.62;98644.06;4468949;32;33549;-82
2022/09/19 05:16:55;;;;;;;;;;;;;;;20.28;41.79;98650.84;4468289;32;34329;-82
2022/09/19 05:19:22;;;;;;;;;;;;;;;20.50;41.53;98656.25;4454587;32;34144;-83
2022/09/19 05:21:51;;;;;;;;;;;;;;;20.58;41.27;98648.94;4469312;32;33625;-81
2022/09/19 05:24:18;;;;;;;;;;;;;;;19.74;42.91;98663.16;4468456;32;33607;-84
2022/09/19 05:26:47;;;;;;;;;;;;;;;19.74;43.13;98673.69;4468611;32;34201;-83
2022/09/19 05:29:14;;;;;;;;;;;;;;;19.57;43.49;98675.94;4468773;32;35111;-83
2022/09/19 05:31:45;;;;;;;;;;;;;;;19.48;43.87;98685.00;4473068;32;32770;-84
2022/09/19 05:34:13;;;;;;;;;;;;;;;19.50;44.16;98684.94;4468873;32;34038;-83
2022/09/19 05:36:41;;;;;;;;;;;;;;;19.84;42.89;98677.72;4470889;32;35303;-84
2022/09/19 05:39:09;;;;;;;;;;;;;;;19.61;43.61;98681.06;4468138;32;34417;-84
2022/09/19 05:41:38;;;;;;;;;;;;;;;19.67;43.30;98695.81;4483142;31;33076;-84
2022/09/19 05:44:06;;;;;;;;;;;;;;;19.23;44.20;98684.88;4482626;32;34081;-83
2022/09/19 05:46:33;;;;;;;;;;;;;;;19.15;44.59;98689.50;4482603;32;34486;-83
2022/09/19 05:49:00;;;;;;;;;;;;;;;19.40;43.54;98687.84;4468188;32;34078;-82
2022/09/19 05:51:28;;;;;;;;;;;;;;;19.30;43.85;98680.28;4467942;32;32837;-83
2022/09/19 05:53:57;;;;;;;;;;;;;;;18.67;45.84;98680.31;4468481;32;34847;-84
2022/09/19 05:56:25;;;;;;;;;;;;;;;18.98;45.45;98683.84;4468396;32;34394;-83
2022/09/19 05:58:55;;;;;;;;;;;;;;;19.05;44.86;98690.66;4467997;32;34197;-83
2022/09/19 06:01:24;;;;;;;;;;;;;;;19.01;45.34;98689.87;4455479;32;34370;-81
2022/09/19 06:03:52;;;;;;;;;;;;;;;18.28;47.00;98694.50;4469713;32;33443;-84
2022/09/19 06:06:20;;;;;;;;;;;;;;;18.44;46.24;98699.31;4475531;32;35286;-83
2022/09/19 06:08:53;;;;;;;;;;;;;;;17.99;46.95;98696.09;4483210;32;34126;-84
2022/09/19 06:11:20;;;;;;;;;;;;;;;18.26;46.91;98699.81;4483885;32;33408;-84
2022/09/19 06:16:35;;;;;;;;;;;;;;;18.96;45.31;98700.53;4483751;32;35125;-83
2022/09/19 06:19:04;;;;;;;;;;;;;;;18.57;46.03;98702.47;4483888;32;34865;-83
2022/09/19 06:21:31;;;;;;;;;;;;;;;18.18;46.51;98705.25;4476381;32;32986;-81
2022/09/19 06:24:00;;;;;;;;;;;;;;;17.90;47.62;98707.69;4483556;31;34128;-82
2022/09/19 06:26:27;;;;;;;;;;;;;;;18.03;46.91;98710.00;4483800;32;34974;-82
2022/09/19 06:28:55;;;;;;;;;;;;;;;18.13;47.05;98714.13;4483577;31;34045;-82
2022/09/19 06:31:24;;;;;;;;;;;;;;;18.27;47.01;98712.03;4481107;32;33434;-83
2022/09/19 06:33:51;;;;;;;;;;;;;;;17.81;47.49;98710.53;4478827;32;34814;-82
2022/09/19 06:36:19;;;;;;;;;;;;;;;17.76;47.50;98720.25;4483272;32;34314;-83
2022/09/19 06:38:47;;;;;;;;;;;;;;;17.92;47.31;98716.38;4470401;32;34723;-83
2022/09/19 06:41:15;;;;;;;;;;;;;;;18.24;46.52;98723.44;4472541;32;33176;-83
2022/09/19 06:43:46;;;;;;;;;;;;;;;18.46;45.90;98717.66;4483582;32;34297;-83
2022/09/19 06:46:14;;;;;;;;;;;;;;;18.68;45.95;98723.19;4483468;31;35200;-83
2022/09/19 06:48:42;;;;;;;;;;;;;;;18.69;45.49;98724.91;4483772;32;34080;-83
2022/09/19 06:51:13;;;;;;;;;;;;;;;18.25;46.90;98721.69;4483433;32;33056;-83
2022/09/19 06:53:40;;;;;;;;;;;;;;;18.59;46.02;98731.31;4483641;32;34417;-84
2022/09/19 06:56:07;;;;;;;;;;;;;;;17.65;48.45;98727.47;4483823;32;34219;-84
2022/09/19 06:58:35;;;;;;;;;;;;;;;16.97;49.63;98721.09;4483507;32;34035;-84
2022/09/19 07:01:02;;;;;;;;;;;;;;;17.44;48.74;98724.44;4483290;32;33511;-84
2022/09/19 07:03:29;;;;;;;;;;;;;;;17.13;49.60;98723.38;4483650;32;34899;-84
2022/09/19 07:05:59;;;;;;;;;;;;;;;17.11;49.22;98730.41;4483293;32;35372;-84
2022/09/19 07:08:30;;;;;;;;;;;;;;;15.52;53.63;98734.81;4469798;32;34880;-84
2022/09/19 07:10:58;;;;;;;;;;;;;;;17.00;50.02;98738.47;4483380;32;33483;-84
2022/09/19 07:13:25;;;;;;;;;;;;;;;16.98;50.56;98728.03;4483517;32;33943;-84
2022/09/19 07:16:01;;;;;;;;;;;;;;;16.66;51.46;98738.22;4483544;32;34905;-84
2022/09/19 07:18:29;;;;;;;;;;;;;;;16.67;51.07;98737.34;4483116;32;34228;-84
2022/09/19 07:21:00;;;;;;;;;;;;;;;16.78;50.96;98735.41;4469105;32;33372;-84
2022/09/19 07:23:28;;;;;;;;;;;;;;;16.82;50.73;98741.44;4483459;32;34197;-84
2022/09/19 07:25:55;;;;;;;;;;;;;;;16.58;51.66;98746.22;4483522;32;35385;-83
2022/09/19 07:28:23;;;;;;;;;;;;;;;17.09;50.22;98737.44;4469019;32;33977;-84
2022/09/19 07:30:52;;;;;;;;;;;;;;;16.98;50.23;98741.13;4469361;32;34079;-84
2022/09/19 07:33:21;;;;;;;;;;;;;;;17.29;50.43;98745.75;4469278;32;35037;-83
2022/09/19 07:35:48;;;;;;;;;;;;;;;16.50;51.41;98742.87;4482349;32;34504;-83
2022/09/19 07:38:17;;;;;;;;;;;;;;;17.54;49.73;98739.97;4483316;32;35153;-84
2022/09/19 07:40:45;;;;;;;;;;;;;;;17.00;50.94;98752.41;4469163;32;32795;-84
2022/09/19 07:43:15;;;;;;;;;;;;;;;17.17;51.07;98752.09;4469165;32;34918;-84
2022/09/19 07:45:44;;;;;;;;;;;;;;;17.41;49.91;98752.47;4469299;32;34302;-83
2022/09/19 07:48:11;;;;;;;;;;;;;;;16.38;52.26;98746.59;4482885;32;34611;-83
2022/09/19 07:50:40;;;;;;;;;;;;;;;16.19;53.73;98756.50;4483589;32;33794;-84
2022/09/19 07:53:15;;;;;;;;;;;;;;;16.03;54.39;98750.66;4483146;32;34909;-83
2022/09/19 07:55:47;;;;;;;;;;;;;;;16.85;53.58;98754.47;4468912;32;34236;-84
2022/09/19 07:58:14;;;;;;;;;;;;;;;16.44;53.51;98764.81;4468797;32;34809;-82
2022/09/19 08:00:42;;;;;;;;;;;;;;;15.19;55.44;98771.81;4483098;32;33310;-83
2022/09/19 08:03:13;;;;;;;;;;;;;;;15.96;54.19;98783.00;4482599;32;34222;-83
2022/09/19 08:05:42;;;;;;;;;;;;;;;16.88;52.63;98781.47;4468660;32;33952;-82
2022/09/19 08:08:10;;;;;;;;;;;;;;;16.45;53.78;98791.81;4469113;32;34484;-83
2022/09/19 08:10:39;;;;;;;;;;;;;;;16.31;51.26;98792.03;4482892;32;33033;-84
2022/09/19 08:13:14;;;;;;;;;;;;;;;16.05;53.02;98782.00;4469245;32;33939;-84
2022/09/19 08:15:43;;;;;;;;;;;;;;;15.92;53.89;98777.84;4482418;32;34625;-83
2022/09/19 08:18:13;;;;;;;;;;;;;;;16.61;50.69;98781.94;4482389;32;34103;-84
2022/09/19 08:20:40;;;;;;;;;;;;;;;17.35;50.13;98776.19;4468626;32;33633;-83
2022/09/19 08:23:09;;;;;;;;;;;;;;;17.88;48.75;98775.06;4482545;32;35104;-85
2022/09/19 08:25:46;;;;;;;;;;;;;;;18.15;48.52;98780.56;4468431;32;34458;-84
2022/09/19 08:28:14;;;;;;;;;;;;;;;17.12;47.73;98774.03;4482500;32;35347;-83
2022/09/19 08:30:43;;;;;;;;;;;;;;;17.79;47.55;98783.13;4482754;32;33330;-84
2022/09/19 08:33:10;;;;;;;;;;;;;;;18.18;46.62;98790.94;4482256;32;34292;-83
2022/09/19 08:35:41;;;;;;;;;;;;;;;17.33;47.64;98796.31;4482543;32;34972;-83
2022/09/19 08:38:10;;;;;;;;;;;;;;;17.43;46.99;98796.09;4482341;32;34033;-85
2022/09/19 08:40:43;;;;;;;;;;;;;;;17.22;48.25;98786.91;4468341;32;34190;-83
2022/09/19 08:43:17;;;;;;;;;;;;;;;17.24;47.30;98789.53;4482277;32;33784;-83
2022/09/19 08:46:03;;;;;;;;;;;;;;;16.76;48.00;98794.78;4468065;32;33756;-84
2022/09/19 08:48:45;;;;;;;;;;;;;;;17.11;47.07;98796.75;4483491;32;33373;-84
2022/09/19 08:51:33;;;;;;;;;;;;;;;16.83;46.59;98795.56;4470762;32;32829;-83
2022/09/19 08:54:10;;;;;;;;;;;;;;;16.85;45.31;98796.37;4454819;32;34084;-83
2022/09/19 08:56:37;;;;;;;;;;;;;;;17.40;45.92;98793.53;4484290;32;34948;-83
2022/09/19 08:59:10;;;;;;;;;;;;;;;17.71;44.76;98778.00;4469955;31;33861;-84
2022/09/19 09:01:37;;;;;;;;;;;;;;;17.44;44.29;98786.47;4470185;32;33290;-82
2022/09/19 09:04:16;;;;;;;;;;;;;;;17.76;43.38;98798.91;4484356;31;34763;-82
2022/09/19 09:06:47;;;;;;;;;;;;;;;17.56;44.08;98799.31;4451983;32;34068;-84
2022/09/19 09:09:37;;;;;;;;;;;;;;;16.96;45.13;98811.00;4451705;32;33986;-84
2022/09/19 09:12:19;;;;;;;;;;;;;;;17.52;44.26;98798.53;4453308;32;34052;-83
2022/09/19 09:14:50;;;;;;;;;;;;;;;17.29;43.44;98815.62;4451337;32;33692;-84
2022/09/19 09:17:49;;;;;;;;;;;;;;;17.56;44.04;98811.56;4451961;32;35172;-82
2022/09/19 09:20:38;;;;;;;;;;;;;;;17.63;43.99;98819.28;4452062;32;35099;-83
2022/09/19 09:23:32;;;;;;;;;;;;;;;17.31;42.02;98817.28;4452712;32;33245;-82
2022/09/19 09:26:05;;;;;;;;;;;;;;;17.17;41.54;98820.22;4429310;32;33582;-83
2022/09/19 09:28:35;;;;;;;;;;;;;;;17.87;40.77;98811.78;4451605;32;34163;-82
2022/09/19 09:31:26;;;;;;;;;;;;;;;17.09;42.02;98821.25;4452928;32;34640;-82
2022/09/19 09:34:03;;;;;;;;;;;;;;;17.45;42.02;98814.41;4453183;32;32724;-81
2022/09/19 09:36:35;;;;;;;;;;;;;;;17.30;42.63;98812.97;4452999;32;35023;-82
2022/09/19 09:39:12;;;;;;;;;;;;;;;18.41;40.11;98814.91;4451486;32;34212;-82
2022/09/19 09:41:51;;;;;;;;;;;;;;;18.43;39.18;98822.72;4451678;32;34257;-83
2022/09/19 09:44:23;;;;;;;;;;;;;;;17.63;40.76;98821.03;4451212;32;33414;-81
2022/09/19 09:46:58;;;;;;;;;;;;;;;17.19;41.64;98833.25;4452990;32;34344;-81
2022/09/19 09:49:29;;;;;;;;;;;;;;;18.03;40.14;98815.78;4451398;32;34469;-83
2022/09/19 09:52:03;;;;;;;;;;;;;;;18.27;40.42;98822.22;4451778;32;34298;-83
2022/09/19 09:57:37;;;;;;;;;;;;;;;16.75;43.28;98821.88;4452937;32;34968;-83
2022/09/19 10:03:35;;;;;;;;;;;;;;;17.31;43.20;98826.91;4452206;32;34632;-83
2022/09/19 10:06:13;;;;;;;;;;;;;;;17.41;42.01;98828.47;4475975;32;33223;-84
2022/09/19 10:08:46;;;;;;;;;;;;;;;17.59;42.66;98835.09;4469687;32;34077;-81
2022/09/19 10:11:21;;;;;;;;;;;;;;;17.21;45.11;98847.22;4469852;32;34242;-83
2022/09/19 10:14:18;;;;;;;;;;;;;;;17.28;46.67;98843.59;4483598;32;34124;-83
2022/09/19 10:16:47;;;;;;;;;;;;;;;18.56;45.46;98849.53;4469752;32;33476;-83
2022/09/19 10:19:31;;;;;;;;;;;;;;;18.02;45.89;98852.56;4469925;32;34016;-83
2022/09/19 10:21:59;;;;;;;;;;;;;;;17.72;47.95;98849.66;4483549;32;34106;-83
2022/09/19 10:24:43;;;;;;;;;;;;;;;18.50;46.25;98840.03;4483975;32;34562;-83
2022/09/19 10:27:11;;;;;;;;;;;;;;;17.65;47.97;98841.09;4483746;31;33538;-82
2022/09/19 10:29:52;;;;;;;;;;;;;;;18.29;46.92;98841.41;4483904;31;33823;-84
2022/09/19 10:32:24;;;;;;;;;;;;;;;17.30;44.88;98835.69;4469376;32;34233;-82
2022/09/19 10:34:56;;;;;;;;;;;;;;;17.83;43.19;98831.12;4470402;32;34877;-84
2022/09/19 10:37:27;;;;;;;;;;;;;;;17.72;43.72;98829.53;4469480;32;33253;-82
2022/09/19 10:40:00;;;;;;;;;;;;;;;17.70;43.65;98833.97;4483509;32;33845;-82
2022/09/19 10:42:32;;;;;;;;;;;;;;;18.40;43.03;98828.91;4483622;31;34305;-84
2022/09/19 10:44:59;;;;;;;;;;;;;;;18.07;43.54;98824.44;4483834;32;33710;-83
2022/09/19 10:47:28;;;;;;;;;;;;;;;17.89;42.92;98825.75;4469470;32;34022;-83
2022/09/19 10:50:00;;;;;;;;;;;;;;;17.36;44.37;98828.56;4469912;32;34128;-83
2022/09/19 10:52:30;;;;;;;;;;;;;;;18.50;43.16;98828.69;4469314;32;34913;-84
2022/09/19 10:55:21;;;;;;;;;;;;;;;19.16;42.07;98818.19;4471886;32;34279;-84
2022/09/19 10:57:53;;;;;;;;;;;;;;;18.68;41.15;98817.72;4469577;32;34470;-83
2022/09/19 11:00:20;;;;;;;;;;;;;;;18.50;42.50;98819.03;4469449;32;34370;-84
2022/09/19 11:02:55;;;;;;;;;;;;;;;18.65;40.98;98820.44;4483889;32;34432;-82
2022/09/19 11:05:24;;;;;;;;;;;;;;;19.30;38.65;98817.81;4469209;32;34217;-82
2022/09/19 11:07:56;;;;;;;;;;;;;;;19.50;39.19;98813.75;4483337;32;33003;-83
2022/09/19 11:10:33;;;;;;;;;;;;;;;19.81;38.43;98830.41;4468635;32;34080;-81
2022/09/19 11:13:04;;;;;;;;;;;;;;;17.84;41.20;98835.44;4483482;32;34154;-83
2022/09/19 11:15:34;;;;;;;;;;;;;;;18.14;42.70;98865.37;4483196;32;34446;-82
2022/09/19 11:18:02;;;;;;;;;;;;;;;16.89;47.49;98881.81;4469134;32;33610;-82
2022/09/19 11:20:41;;;;;;;;;;;;;;;16.23;52.12;98899.41;4483374;31;34231;-84
2022/09/19 11:23:13;;;;;;;;;;;;;;;16.21;51.15;98895.06;4468784;32;34302;-83
2022/09/19 11:25:50;;;;;;;;;;;;;;;16.79;50.24;98899.47;4483244;32;33976;-83
2022/09/19 11:28:24;;;;;;;;;;;;;;;17.28;49.43;98888.13;4469110;32;33667;-83
2022/09/19 11:31:05;;;;;;;;;;;;;;;16.97;50.04;98887.78;4483013;32;33837;-83
2022/09/19 11:34:12;;;;;;;;;;;;;;;15.74;52.03;98892.22;4469393;32;35179;-83
2022/09/19 11:37:19;;;;;;;;;;;;;;;16.43;51.43;98880.78;4418716;32;33941;-83
2022/09/19 11:39:48;;;;;;;;;;;;;;;16.35;52.89;98866.97;4418702;32;34332;-83
2022/09/19 11:42:25;;;;;;;;;;;;;;;15.56;54.31;98888.03;4469862;32;34891;-84
2022/09/19 11:45:12;;;;;;;;;;;;;;;17.11;51.94;98877.06;4483232;32;34338;-84
2022/09/19 11:47:45;;;;;;;;;;;;;;;16.82;53.58;98882.81;4483189;31;34603;-84
2022/09/19 11:50:33;;;;;;;;;;;;;;;16.77;52.56;98878.53;4483208;32;34410;-84
2022/09/19 11:53:19;;;;;;;;;;;;;;;16.83;51.66;98879.34;4468717;32;34276;-84
2022/09/19 11:55:58;;;;;;;;;;;;;;;17.23;50.66;98882.09;4482439;32;34452;-82
2022/09/19 11:58:42;;;;;;;;;;;;;;;16.59;50.67;98883.16;4482640;32;35108;-82
2022/09/19 12:01:28;;;;;;;;;;;;;;;16.93;48.41;98892.25;4482912;32;33220;-83
2022/09/19 12:04:01;;;;;;;;;;;;;;;16.25;48.91;98891.53;4482900;32;34029;-83
2022/09/19 12:06:37;;;;;;;;;;;;;;;16.31;48.01;98888.84;4482499;32;34073;-83
2022/09/19 12:09:05;;;;;;;;;;;;;;;15.50;51.74;98903.81;4482620;32;35297;-83
2022/09/19 12:11:49;;;;;;;;;;;;;;;16.44;50.00;98900.88;4482680;32;34358;-83
2022/09/19 12:14:23;;;;;;;;;;;;;;;16.62;49.28;98898.81;4468774;32;34413;-83
2022/09/19 12:16:55;;;;;;;;;;;;;;;17.07;49.27;98899.84;4468280;32;34224;-82
2022/09/19 12:19:29;;;;;;;;;;;;;;;17.08;48.98;98898.09;4468658;32;34633;-82
2022/09/19 12:21:57;;;;;;;;;;;;;;;17.65;49.15;98904.00;4469275;32;33513;-83
2022/09/19 12:24:53;;;;;;;;;;;;;;;17.79;46.88;98890.63;4470158;32;34290;-83
2022/09/19 12:27:24;;;;;;;;;;;;;;;17.81;47.74;98891.47;4472394;32;34074;-83
2022/09/19 12:30:15;;;;;;;;;;;;;;;18.05;46.23;98892.69;4484753;32;35245;-83
2022/09/19 12:32:46;;;;;;;;;;;;;;;17.65;48.76;98903.09;4476567;32;33461;-83
2022/09/19 12:35:26;;;;;;;;;;;;;;;16.82;47.47;98903.75;4484717;31;34168;-83
2022/09/19 12:38:13;;;;;;;;;;;;;;;17.51;47.92;98899.03;4483997;32;34270;-83
2022/09/19 12:40:49;;;;;;;;;;;;;;;17.16;50.43;98901.41;4484303;32;34478;-83
2022/09/19 12:43:16;;;;;;;;;;;;;;;17.89;49.26;98900.03;4470568;32;33366;-83
2022/09/19 12:46:09;;;;;;;;;;;;;;;17.74;46.30;98897.69;4484676;32;34291;-82
2022/09/19 12:48:57;;;;;;;;;;;;;;;17.82;47.10;98908.06;4484527;31;35299;-83
2022/09/19 12:51:32;;;;;;;;;;;;;;;18.28;45.08;98900.06;4453242;32;35393;-83
2022/09/19 12:54:06;;;;;;;;;;;;;;;18.60;45.31;98894.06;4470379;32;33654;-84
2022/09/19 12:56:36;;;;;;;;;;;;;;;17.40;47.67;98895.75;4470116;32;34770;-83
2022/09/19 12:59:06;;;;;;;;;;;;;;;16.77;47.63;98896.00;4469884;32;34553;-83
2022/09/19 13:01:40;;;;;;;;;;;;;;;17.10;47.45;98905.03;4454884;31;926327;-83
2022/09/19 13:04:08;;;;;;;;;;;;;;;17.33;45.53;98902.00;4469838;32;33985;-83
2022/09/19 13:06:36;;;;;;;;;;;;;;;16.18;48.79;98897.75;4483821;32;33555;-83
2022/09/19 13:09:06;;;;;;;;;;;;;;;17.78;45.51;98898.53;4484166;31;34264;-82
2022/09/19 13:11:36;;;;;;;;;;;;;;;16.86;47.50;98898.47;4469797;32;34326;-83
2022/09/19 13:14:10;;;;;;;;;;;;;;;17.83;44.76;98883.56;4484471;31;33445;-82
2022/09/19 13:23:30;;;;;;;;;;;;;;;17.33;47.27;98881.03;4470426;32;33995;-83
2022/09/19 13:24:47;;;;;;;;;;;;;;;17.77;44.66;98897.69;4484037;32;33421;-84
2022/09/19 13:27:14;;;;;;;;;;;;;;;17.46;44.02;98887.78;4483837;32;35075;-83
2022/09/19 13:29:44;;;;;;;;;;;;;;;18.09;43.51;98885.63;4483910;32;34306;-84
2022/09/19 13:32:37;;;;;;;;;;;;;;;18.52;42.97;98882.00;4469903;32;35224;-83